createdAt,value
2019-02-07T00:01:21.448Z,22.57
2019-02-07T00:03:50.765Z,20.52
2019-02-07T00:06:20.072Z,20.90
2019-02-07T00:08:49.321Z,21.50
2019-02-07T00:11:18.563Z,22.05
2019-02-07T00:13:48.044Z,21.57
2019-02-07T00:16:17.295Z,21.70
2019-02-07T00:18:46.529Z,21.80
2019-02-07T00:21:15.772Z,19.82
2019-02-07T00:23:45.027Z,20.62
2019-02-07T00:26:14.299Z,19.87
2019-02-07T00:28:43.548Z,19.85
2019-02-07T00:31:12.865Z,21.17
2019-02-07T00:33:42.071Z,19.87
2019-02-07T00:36:11.298Z,18.85
2019-02-07T00:38:40.570Z,19.02
2019-02-07T00:41:09.796Z,19.75
2019-02-07T00:43:39.105Z,19.42
2019-02-07T00:46:08.339Z,19.85
2019-02-07T00:48:38.194Z,20.12
2019-02-07T00:51:07.468Z,19.42
2019-02-07T00:53:37.862Z,21.20
2019-02-07T00:56:07.154Z,20.52
2019-02-07T00:58:36.427Z,20.43
2019-02-07T01:01:05.933Z,20.90
2019-02-07T01:03:35.209Z,19.85
2019-02-07T01:06:04.707Z,20.08
2019-02-07T01:08:33.962Z,19.32
2019-02-07T01:11:04.146Z,19.25
2019-02-07T01:13:33.454Z,18.60
2019-02-07T01:16:03.089Z,19.27
2019-02-07T01:18:32.299Z,18.95
2019-02-07T01:21:01.498Z,18.35
2019-02-07T01:23:30.749Z,17.10
2019-02-07T01:25:59.995Z,18.77
2019-02-07T01:28:29.200Z,18.60
2019-02-07T01:30:58.837Z,20.45
2019-02-07T01:33:28.087Z,18.42
2019-02-07T01:35:57.318Z,19.70
2019-02-07T01:38:26.531Z,19.62
2019-02-07T01:40:55.842Z,20.55
2019-02-07T01:43:25.072Z,21.87
2019-02-07T01:45:54.587Z,21.75
2019-02-07T01:48:23.796Z,23.10
2019-02-07T01:50:53.082Z,25.57
2019-02-07T01:53:22.298Z,25.68
2019-02-07T01:55:51.579Z,27.55
2019-02-07T01:58:20.781Z,23.77
2019-02-07T02:00:50.014Z,29.25
2019-02-07T02:03:19.254Z,28.77
2019-02-07T02:05:48.746Z,29.30
2019-02-07T02:08:17.947Z,30.10
2019-02-07T02:10:47.205Z,26.10
2019-02-07T02:13:16.452Z,27.07
2019-02-07T02:15:45.757Z,26.97
2019-02-07T02:18:14.963Z,27.40
2019-02-07T02:20:44.274Z,27.40
2019-02-07T02:23:13.478Z,28.95
2019-02-07T02:25:42.725Z,28.45
2019-02-07T02:28:11.946Z,25.85
2019-02-07T02:30:41.152Z,26.10
2019-02-07T02:33:10.418Z,25.25
2019-02-07T02:35:39.663Z,25.57
2019-02-07T02:38:08.868Z,24.34
2019-02-07T02:40:38.123Z,24.07
2019-02-07T02:43:07.328Z,23.20
2019-02-07T02:45:37.881Z,23.75
2019-02-07T02:48:07.367Z,24.82
2019-02-07T02:50:36.607Z,25.15
2019-02-07T02:53:05.836Z,21.17
2019-02-07T02:55:39.842Z,20.70
2019-02-07T02:58:09.083Z,17.13
2019-02-07T03:00:40.454Z,18.82
2019-02-07T03:03:27.513Z,16.47
2019-02-07T03:06:00.807Z,16.80
2019-02-07T03:08:37.682Z,15.88
2019-02-07T03:11:08.587Z,16.67
2019-02-07T03:13:55.943Z,15.80
2019-02-07T03:16:38.756Z,13.95
2019-02-07T03:19:09.643Z,14.23
2019-02-07T03:21:55.470Z,15.05
2019-02-07T03:24:42.674Z,17.70
2019-02-07T03:27:28.804Z,14.50
2019-02-07T03:29:59.675Z,15.38
2019-02-07T03:32:42.828Z,12.85
2019-02-07T03:35:30.368Z,15.08
2019-02-07T03:38:01.208Z,16.52
2019-02-07T03:40:48.343Z,16.07
2019-02-07T03:43:35.571Z,12.93
2019-02-07T03:46:06.630Z,12.98
2019-02-07T03:48:43.400Z,13.75
2019-02-07T03:51:23.558Z,14.10
2019-02-07T03:53:54.449Z,11.97
2019-02-07T03:56:28.244Z,13.98
2019-02-07T03:59:17.221Z,13.40
2019-02-07T04:01:50.841Z,11.68
2019-02-07T04:04:21.695Z,12.83
2019-02-07T04:07:08.996Z,14.70
2019-02-07T04:09:56.042Z,12.50
2019-02-07T04:12:43.153Z,12.73
2019-02-07T04:15:16.991Z,13.88
2019-02-07T04:18:05.923Z,14.00
2019-02-07T04:20:39.436Z,13.60
2019-02-07T04:23:10.337Z,12.66
2019-02-07T04:25:57.047Z,14.33
2019-02-07T04:28:44.288Z,11.95
2019-02-07T04:31:30.180Z,12.33
2019-02-07T04:34:01.021Z,12.30
2019-02-07T04:36:31.923Z,12.37
2019-02-07T04:39:19.182Z,15.03
2019-02-07T04:42:06.334Z,12.33
2019-02-07T04:44:39.889Z,13.08
2019-02-07T04:47:10.933Z,13.17
2019-02-07T04:49:45.694Z,14.65
2019-02-07T04:52:33.273Z,12.90
2019-02-07T04:55:07.025Z,11.83
2019-02-07T04:57:50.130Z,12.13
2019-02-07T05:00:26.683Z,14.47
2019-02-07T05:03:00.184Z,12.23
2019-02-07T05:05:37.102Z,11.65
2019-02-07T05:08:13.625Z,13.13
2019-02-07T05:10:47.396Z,14.47
2019-02-07T05:13:30.363Z,13.93
2019-02-07T05:16:04.222Z,15.63
2019-02-07T05:18:38.285Z,13.98
2019-02-07T05:21:11.859Z,12.45
2019-02-07T05:23:51.944Z,16.32
2019-02-07T05:26:23.312Z,16.02
2019-02-07T05:28:54.154Z,14.18
2019-02-07T05:31:25.023Z,17.45
2019-02-07T05:34:01.836Z,14.28
2019-02-07T05:36:47.743Z,16.10
2019-02-07T05:39:21.459Z,15.43
2019-02-07T05:41:58.048Z,16.70
2019-02-07T05:44:44.041Z,17.52
2019-02-07T05:47:17.495Z,15.35
2019-02-07T05:50:03.416Z,20.72
2019-02-07T05:52:40.065Z,16.27
2019-02-07T05:55:14.161Z,15.95
2019-02-07T05:57:45.167Z,15.08
2019-02-07T06:00:16.022Z,15.32
2019-02-07T06:02:46.875Z,14.65
2019-02-07T06:05:34.121Z,12.33
2019-02-07T06:10:45.084Z,13.53
2019-02-07T06:13:32.563Z,13.50
2019-02-07T06:16:06.119Z,12.43
2019-02-07T06:18:36.954Z,12.70
2019-02-07T06:21:13.616Z,12.53
2019-02-07T06:24:00.728Z,13.35
2019-02-07T06:26:31.616Z,15.05
2019-02-07T06:29:18.621Z,16.55
2019-02-07T06:31:52.171Z,15.35
2019-02-07T06:34:41.282Z,13.53
2019-02-07T06:37:14.742Z,14.10
2019-02-07T06:39:57.862Z,16.70
2019-02-07T06:42:44.875Z,16.75
2019-02-07T06:45:15.748Z,14.33
2019-02-07T06:47:52.536Z,16.73
2019-02-07T06:50:39.570Z,15.90
2019-02-07T06:53:13.378Z,14.50
2019-02-07T06:55:49.817Z,15.25
2019-02-07T06:58:35.885Z,16.60
2019-02-07T07:01:12.860Z,21.60
2019-02-07T07:03:49.712Z,15.40
2019-02-07T07:06:27.945Z,21.82
2019-02-07T07:08:58.834Z,24.87
2019-02-07T07:11:29.721Z,16.57
2019-02-07T07:14:03.307Z,14.98
2019-02-07T07:16:34.129Z,20.82
2019-02-07T07:19:08.353Z,15.85
2019-02-07T07:21:39.240Z,13.22
2019-02-07T07:24:10.249Z,12.78
2019-02-07T07:26:57.096Z,12.78
2019-02-07T07:29:44.523Z,24.92
2019-02-07T07:32:31.749Z,13.68
2019-02-07T07:35:20.866Z,12.75
2019-02-07T07:38:06.768Z,12.13
2019-02-07T07:40:40.976Z,12.28
2019-02-07T07:43:30.421Z,12.68
2019-02-07T07:46:01.031Z,17.67
2019-02-07T07:48:31.856Z,20.20
2019-02-07T07:51:20.964Z,12.35
2019-02-07T07:53:51.872Z,13.00
2019-02-07T07:56:40.599Z,25.05
2019-02-07T07:59:27.461Z,13.55
2019-02-07T08:02:10.602Z,27.22
2019-02-07T08:04:44.194Z,12.98
2019-02-07T08:07:20.887Z,13.30
2019-02-07T08:09:54.929Z,13.40
2019-02-07T08:12:38.054Z,13.13
2019-02-07T08:15:15.345Z,11.45
2019-02-07T08:17:47.721Z,11.65
2019-02-07T08:20:18.755Z,13.43
2019-02-07T08:23:07.919Z,9.30
2019-02-07T08:25:38.870Z,10.40
2019-02-07T08:28:13.018Z,11.03
2019-02-07T08:30:43.831Z,10.75
2019-02-07T08:33:20.711Z,10.83
2019-02-07T08:35:57.283Z,11.33
2019-02-07T08:38:33.886Z,13.60
2019-02-07T08:41:08.464Z,12.28
2019-02-07T08:43:39.358Z,12.03
2019-02-07T08:46:12.981Z,16.06
2019-02-07T08:48:52.876Z,13.80
2019-02-07T08:51:23.762Z,14.83
2019-02-07T08:54:00.596Z,20.60
2019-02-07T08:56:37.215Z,15.32
2019-02-07T08:59:20.533Z,15.98
2019-02-07T09:01:57.560Z,17.52
2019-02-07T09:04:37.625Z,19.25
2019-02-07T09:07:08.642Z,19.75
2019-02-07T09:09:42.492Z,18.80
2019-02-07T09:12:22.150Z,19.50
2019-02-07T09:14:55.717Z,17.52
2019-02-07T09:17:41.867Z,19.48
2019-02-07T09:20:19.300Z,20.97
2019-02-07T09:23:02.486Z,18.05
2019-02-07T09:28:31.883Z,19.00
2019-02-07T09:31:05.686Z,19.77
2019-02-07T09:33:52.697Z,19.30
2019-02-07T09:36:26.803Z,19.67
2019-02-07T09:39:14.324Z,20.55
2019-02-07T09:41:50.889Z,20.52
2019-02-07T09:44:38.001Z,19.60
2019-02-07T09:47:14.629Z,20.95
2019-02-07T09:50:01.685Z,22.65
2019-02-07T09:52:49.020Z,24.45
2019-02-07T09:55:31.917Z,20.95
2019-02-07T09:58:11.760Z,22.93
2019-02-07T10:00:58.862Z,23.80
2019-02-07T10:03:32.701Z,22.65
2019-02-07T10:06:06.456Z,23.02
2019-02-07T10:08:43.380Z,35.38
2019-02-07T10:11:14.294Z,23.10
2019-02-07T10:13:50.859Z,22.15
2019-02-07T10:16:30.897Z,24.20
2019-02-07T10:19:18.371Z,23.50
2019-02-07T10:22:01.207Z,24.00
2019-02-07T10:24:50.118Z,30.55
2019-02-07T10:27:29.854Z,26.57
2019-02-07T10:30:00.775Z,26.10
2019-02-07T10:32:34.379Z,24.98
2019-02-07T10:35:10.646Z,23.80
2019-02-07T10:37:44.223Z,22.35
2019-02-07T10:40:25.819Z,24.95
2019-02-07T10:42:56.664Z,28.67
2019-02-07T10:45:36.924Z,25.90
2019-02-07T10:48:10.529Z,26.50
2019-02-07T10:50:57.537Z,26.68
2019-02-07T10:53:28.747Z,29.85
2019-02-07T10:56:15.880Z,31.75
2019-02-07T10:58:49.712Z,30.72
2019-02-07T11:01:35.836Z,30.60
2019-02-07T11:04:13.099Z,32.35
2019-02-07T11:06:52.897Z,31.35
2019-02-07T11:09:26.509Z,30.60
2019-02-07T11:12:09.633Z,33.28
2019-02-07T11:14:56.661Z,34.05
2019-02-07T11:17:36.580Z,30.70
2019-02-07T11:20:16.390Z,28.85
2019-02-07T11:22:53.243Z,32.40
2019-02-07T11:25:29.809Z,31.90
2019-02-07T11:28:10.205Z,29.23
2019-02-07T11:30:50.742Z,32.20
2019-02-07T11:33:21.615Z,30.23
2019-02-07T11:36:09.071Z,31.17
2019-02-07T11:38:39.924Z,31.05
2019-02-07T11:41:26.124Z,30.60
2019-02-07T11:43:58.104Z,29.37
2019-02-07T11:46:45.499Z,29.45
2019-02-07T11:49:22.113Z,29.87
2019-02-07T11:51:59.234Z,30.35
2019-02-07T11:54:30.080Z,30.40
2019-02-07T11:57:12.708Z,29.48
2019-02-07T12:00:00.198Z,28.50
2019-02-07T12:02:31.103Z,28.92
2019-02-07T12:05:04.947Z,30.25
2019-02-07T12:07:35.856Z,35.10
2019-02-07T12:10:12.897Z,31.43
2019-02-07T12:12:43.760Z,32.23
2019-02-07T12:15:17.866Z,30.12
2019-02-07T12:17:54.970Z,30.65
2019-02-07T12:20:25.842Z,29.85
2019-02-07T12:23:02.413Z,31.30
2019-02-07T12:25:49.388Z,32.90
2019-02-07T12:28:38.299Z,30.32
2019-02-07T12:31:25.083Z,35.35
2019-02-07T12:33:56.317Z,31.93
2019-02-07T12:36:27.175Z,34.35
2019-02-07T12:39:06.746Z,30.57
2019-02-07T12:41:38.586Z,30.65
2019-02-07T12:44:14.996Z,30.90
2019-02-07T12:46:54.983Z,30.35
2019-02-07T12:49:29.293Z,32.23
2019-02-07T12:52:01.602Z,34.05
2019-02-07T12:54:38.693Z,32.95
2019-02-07T12:57:26.481Z,30.95
2019-02-07T13:00:13.649Z,31.62
2019-02-07T13:02:56.727Z,36.95
2019-02-07T13:05:39.673Z,33.23
2019-02-07T13:08:26.781Z,31.06
2019-02-07T13:11:03.445Z,31.97
2019-02-07T13:13:34.384Z,30.62
2019-02-07T13:16:11.929Z,35.33
2019-02-07T13:18:45.484Z,32.95
2019-02-07T13:21:16.353Z,34.38
2019-02-07T13:23:53.207Z,33.98
2019-02-07T13:26:32.996Z,36.45
2019-02-07T13:29:09.281Z,48.05
2019-02-07T13:31:40.484Z,47.90
2019-02-07T13:34:14.115Z,40.83
2019-02-07T13:36:51.048Z,33.08
2019-02-07T13:39:27.720Z,34.67
2019-02-07T13:42:08.061Z,32.20
2019-02-07T13:44:38.943Z,31.33
2019-02-07T13:47:09.781Z,32.64
2019-02-07T13:49:51.613Z,33.58
2019-02-07T13:52:32.626Z,31.90
2019-02-07T13:55:05.886Z,31.70
2019-02-07T13:57:48.900Z,30.93
2019-02-07T14:00:20.016Z,29.02
2019-02-07T14:02:51.021Z,30.82
2019-02-07T14:05:38.599Z,31.07
2019-02-07T14:08:14.814Z,33.30
2019-02-07T14:10:45.692Z,30.90
2019-02-07T14:13:25.282Z,30.43
2019-02-07T14:15:56.185Z,32.00
2019-02-07T14:18:35.839Z,32.20
2019-02-07T14:21:06.688Z,32.67
2019-02-07T14:23:37.584Z,36.55
2019-02-07T14:26:24.927Z,31.12
2019-02-07T14:29:08.194Z,32.88
2019-02-07T14:31:39.041Z,34.95
2019-02-07T14:34:11.447Z,37.48
2019-02-07T14:36:54.469Z,33.10
2019-02-07T14:39:41.535Z,35.10
2019-02-07T14:42:15.052Z,40.75
2019-02-07T14:44:45.939Z,42.45
2019-02-07T14:47:15.198Z,42.13
2019-02-07T14:49:44.445Z,39.83
2019-02-07T14:52:14.120Z,44.08
2019-02-07T14:54:43.361Z,39.05
2019-02-07T14:57:12.559Z,40.17
2019-02-07T14:59:42.127Z,37.17
2019-02-07T15:02:11.471Z,39.33
2019-02-07T15:04:40.719Z,40.55
2019-02-07T15:07:10.058Z,41.05
2019-02-07T15:09:39.267Z,41.85
2019-02-07T15:12:08.497Z,44.08
2019-02-07T15:14:37.765Z,40.12
2019-02-07T15:17:07.009Z,38.17
2019-02-07T15:19:36.288Z,40.00
2019-02-07T15:22:05.544Z,42.75
2019-02-07T15:24:34.797Z,40.48
2019-02-07T15:27:04.223Z,34.92
2019-02-07T15:29:33.490Z,39.27
2019-02-07T15:32:02.688Z,38.08
2019-02-07T15:34:31.983Z,38.78
2019-02-07T15:37:01.228Z,34.80
2019-02-07T15:39:30.424Z,37.30
2019-02-07T15:41:59.620Z,34.23
2019-02-07T15:44:28.862Z,36.58
2019-02-07T15:46:58.115Z,38.75
2019-02-07T15:49:27.643Z,36.23
2019-02-07T15:51:57.065Z,37.25
2019-02-07T15:54:26.399Z,37.13
2019-02-07T15:56:55.612Z,41.70
2019-02-07T15:59:26.618Z,37.33
2019-02-07T16:01:57.461Z,39.05
2019-02-07T16:04:27.758Z,40.23
2019-02-07T16:06:56.942Z,37.10
2019-02-07T16:09:26.176Z,40.52
2019-02-07T16:11:55.684Z,38.42
2019-02-07T16:14:24.879Z,36.95
2019-02-07T16:19:52.539Z,35.00
2019-02-07T16:22:21.776Z,33.13
2019-02-07T16:24:51.041Z,32.80
2019-02-07T16:27:21.295Z,33.25
2019-02-07T16:29:50.572Z,33.35
2019-02-07T16:32:19.925Z,34.73
2019-02-07T16:34:49.210Z,32.20
2019-02-07T16:37:18.485Z,34.00
2019-02-07T16:39:50.816Z,35.38
2019-02-07T16:42:20.076Z,37.93
2019-02-07T16:44:49.622Z,34.90
2019-02-07T16:47:22.983Z,34.48
2019-02-07T16:49:52.543Z,36.93
2019-02-07T16:52:21.875Z,35.75
2019-02-07T16:54:51.341Z,34.23
2019-02-07T16:57:20.557Z,32.80
2019-02-07T16:59:49.798Z,35.92
2019-02-07T17:02:19.198Z,39.07
2019-02-07T17:04:48.423Z,42.35
2019-02-07T17:07:17.712Z,41.50
2019-02-07T17:09:47.114Z,45.40
2019-02-07T17:12:16.657Z,39.23
2019-02-07T17:14:46.290Z,38.58
2019-02-07T17:17:15.515Z,37.95
2019-02-07T17:19:44.920Z,36.25
2019-02-07T17:22:14.171Z,38.90
2019-02-07T17:24:43.671Z,35.80
2019-02-07T17:27:12.965Z,37.10
2019-02-07T17:29:42.179Z,37.05
2019-02-07T17:32:11.641Z,37.75
2019-02-07T17:34:40.974Z,36.42
2019-02-07T17:37:10.569Z,36.53
2019-02-07T17:39:39.825Z,36.38
2019-02-07T17:42:09.167Z,35.48
2019-02-07T17:44:38.388Z,34.73
2019-02-07T17:47:10.310Z,34.25
2019-02-07T17:49:38.761Z,34.75
2019-02-07T17:52:08.098Z,31.70
2019-02-07T17:54:37.305Z,34.58
2019-02-07T17:57:07.215Z,34.67
2019-02-07T17:59:36.857Z,32.58
2019-02-07T18:02:07.821Z,34.20
2019-02-07T18:04:37.216Z,32.25
2019-02-07T18:07:06.715Z,33.02
2019-02-07T18:09:35.906Z,31.50
2019-02-07T18:12:05.176Z,34.55
2019-02-07T18:14:34.380Z,34.83
2019-02-07T18:17:04.410Z,44.03
2019-02-07T18:19:33.755Z,44.18
2019-02-07T18:22:03.002Z,41.85
2019-02-07T18:24:32.356Z,48.23
2019-02-07T18:27:01.569Z,43.45
2019-02-07T18:29:31.142Z,41.35
2019-02-07T18:32:00.817Z,45.63
2019-02-07T18:34:30.022Z,42.00
2019-02-07T18:36:59.272Z,46.88
2019-02-07T18:39:30.784Z,37.85
2019-02-07T18:41:59.452Z,45.10
2019-02-07T18:44:28.703Z,38.78
2019-02-07T18:46:58.068Z,40.85
2019-02-07T18:49:27.267Z,37.75
2019-02-07T18:52:01.702Z,43.70
2019-02-07T18:54:31.378Z,41.13
2019-02-07T18:57:00.640Z,40.08
2019-02-07T18:59:29.895Z,43.28
2019-02-07T19:01:59.273Z,39.45
2019-02-07T19:04:28.482Z,43.55
2019-02-07T19:06:57.728Z,40.63
2019-02-07T19:09:26.928Z,42.43
2019-02-07T19:11:56.573Z,41.90
2019-02-07T19:14:25.828Z,42.58
2019-02-07T19:16:55.147Z,39.10
2019-02-07T19:19:24.340Z,39.00
2019-02-07T19:21:57.229Z,35.43
2019-02-07T19:24:24.567Z,33.10
2019-02-07T19:26:54.754Z,34.92
2019-02-07T19:29:24.087Z,33.73
2019-02-07T19:31:53.356Z,32.35
2019-02-07T19:34:22.606Z,34.15
2019-02-07T19:36:51.859Z,32.03
2019-02-07T19:39:21.232Z,30.83
2019-02-07T19:41:50.628Z,33.80
2019-02-07T19:44:19.877Z,33.00
2019-02-07T19:46:49.147Z,27.93
2019-02-07T19:49:18.353Z,29.52
2019-02-07T19:51:47.781Z,30.82
2019-02-07T19:54:16.991Z,29.07
2019-02-07T19:56:47.323Z,30.17
2019-02-07T19:59:17.600Z,26.02
2019-02-07T20:01:47.415Z,27.82
2019-02-07T20:04:16.626Z,26.80
2019-02-07T20:06:45.825Z,31.00
2019-02-07T20:09:15.082Z,33.28
2019-02-07T20:11:44.563Z,30.43
2019-02-07T20:14:13.813Z,31.27
2019-02-07T20:16:43.669Z,32.60
2019-02-07T20:19:12.907Z,32.55
2019-02-07T20:21:42.229Z,30.23
2019-02-07T20:24:12.006Z,33.08
2019-02-07T20:26:41.733Z,31.82
2019-02-07T20:29:11.208Z,31.82
2019-02-07T20:31:40.461Z,34.95
2019-02-07T20:34:09.706Z,32.75
2019-02-07T20:36:38.910Z,30.50
2019-02-07T20:39:08.304Z,31.50
2019-02-07T20:41:37.500Z,28.60
2019-02-07T20:44:06.745Z,29.10
2019-02-07T20:46:35.944Z,32.08
2019-02-07T20:49:05.188Z,31.33
2019-02-07T20:51:34.400Z,34.03
2019-02-07T20:54:04.251Z,30.50
2019-02-07T20:56:33.562Z,32.28
2019-02-07T20:59:02.860Z,30.05
2019-02-07T21:01:32.544Z,32.60
2019-02-07T21:04:02.334Z,31.00
2019-02-07T21:06:31.515Z,29.27
2019-02-07T21:09:00.937Z,26.77
2019-02-07T21:11:31.759Z,26.70
2019-02-07T21:14:01.019Z,30.02
2019-02-07T21:16:30.239Z,27.30
2019-02-07T21:18:59.521Z,29.67
2019-02-07T21:21:28.811Z,24.37
2019-02-07T21:23:58.363Z,24.98
2019-02-07T21:26:27.861Z,24.98
2019-02-07T21:28:57.114Z,27.98
2019-02-07T21:31:27.294Z,27.70
2019-02-07T21:33:56.997Z,23.57
2019-02-07T21:36:26.251Z,26.25
2019-02-07T21:38:55.492Z,27.27
2019-02-07T21:41:24.768Z,23.40
2019-02-07T21:43:53.978Z,29.63
2019-02-07T21:46:23.929Z,24.25
2019-02-07T21:48:54.042Z,26.33
2019-02-07T21:51:23.488Z,23.00
2019-02-07T21:53:52.748Z,24.35
2019-02-07T21:56:22.141Z,23.02
2019-02-07T21:58:51.994Z,25.95
2019-02-07T22:01:21.391Z,25.02
2019-02-07T22:03:50.642Z,22.90
2019-02-07T22:06:21.131Z,23.43
2019-02-07T22:08:50.634Z,27.45
2019-02-07T22:11:19.846Z,23.52
2019-02-07T22:13:49.124Z,27.22
2019-02-07T22:16:18.329Z,26.02
2019-02-07T22:18:47.637Z,28.42
2019-02-07T22:21:17.022Z,27.30
2019-02-07T22:23:46.330Z,26.82
2019-02-07T22:26:15.541Z,30.30
2019-02-07T22:28:44.789Z,30.02
2019-02-07T22:31:14.035Z,26.27
2019-02-07T22:33:43.686Z,28.05
2019-02-07T22:36:13.301Z,30.48
2019-02-07T22:38:42.544Z,25.57
2019-02-07T22:41:11.753Z,26.70
2019-02-07T22:43:40.996Z,30.75
2019-02-07T22:46:10.199Z,24.67
2019-02-07T22:48:39.493Z,27.02
2019-02-07T22:51:08.900Z,28.50
2019-02-07T22:53:38.142Z,27.73
2019-02-07T22:56:07.568Z,28.98
2019-02-07T22:58:36.856Z,30.32
2019-02-07T23:01:12.000Z,25.50
2019-02-07T23:03:41.311Z,27.67
2019-02-07T23:06:10.705Z,27.20
2019-02-07T23:08:39.912Z,24.43
2019-02-07T23:11:09.288Z,25.70
2019-02-07T23:13:38.538Z,23.95
2019-02-07T23:16:08.413Z,26.82
2019-02-07T23:18:37.722Z,25.92
2019-02-07T23:21:07.099Z,24.98
2019-02-07T23:23:36.644Z,24.70
2019-02-07T23:26:05.952Z,24.07
2019-02-07T23:28:35.198Z,20.13
2019-02-07T23:31:05.578Z,22.15
2019-02-07T23:33:34.846Z,22.40
2019-02-07T23:36:04.525Z,23.30
2019-02-07T23:38:33.751Z,22.85
2019-02-07T23:41:02.987Z,22.10
2019-02-07T23:43:32.195Z,20.17
2019-02-07T23:46:01.442Z,22.75
2019-02-07T23:48:30.647Z,24.67
2019-02-07T23:51:00.304Z,20.77
2019-02-07T23:53:29.554Z,20.08
2019-02-07T23:55:58.868Z,26.10
2019-02-07T23:58:28.069Z,23.47
